Time;durP1;ratioP1;P1;durP2;ratioP2;P2;SDS_P1;SDS_P2;PMS_P1;PMS_P2;Temp;Humidity;BMP_temperature;BMP_pressure;BME280_temperature;BME280_humidity;BME280_pressure;Samples;Min_cycle;Max_cycle;Signal;HPM_P1;HPM_P2
2022/01/13 00:00:58;;;;;;;37.20;14.48;;;;;;;11.71;47.38;103915.13;4954325;29;20027;-67
2022/01/13 00:03:24;;;;;;;40.67;14.15;;;;;;;11.73;46.57;103911.44;4954565;29;20031;-67
2022/01/13 00:05:49;;;;;;;40.38;13.63;;;;;;;11.74;47.15;103909.63;4954888;29;20186;-67
2022/01/13 00:08:15;;;;;;;40.33;13.48;;;;;;;11.71;46.96;103916.00;4954320;29;20023;-67
2022/01/13 00:10:40;;;;;;;37.95;13.85;;;;;;;11.67;47.95;103907.16;4921418;29;20062;-67
2022/01/13 00:13:08;;;;;;;41.70;12.18;;;;;;;11.65;46.83;103917.09;4937363;29;20035;-66
2022/01/13 00:15:46;;;;;;;45.15;14.18;;;;;;;11.60;47.49;103912.81;4937705;29;20042;-67
2022/01/13 00:18:38;;;;;;;38.60;13.85;;;;;;;11.57;47.22;103915.63;4922882;29;20039;-67
2022/01/13 00:21:14;;;;;;;41.80;12.90;;;;;;;11.54;47.54;103921.13;4939190;29;20042;-67
2022/01/13 00:23:43;;;;;;;35.40;13.90;;;;;;;11.50;47.05;103920.34;4954813;28;20034;-66
2022/01/13 00:26:30;;;;;;;39.10;13.40;;;;;;;11.49;47.29;103918.63;4957967;29;20034;-67
2022/01/13 00:28:57;;;;;;;39.10;12.68;;;;;;;11.51;47.08;103921.22;4958323;29;20059;-67
2022/01/13 00:31:28;;;;;;;39.00;12.70;;;;;;;11.50;47.59;103912.28;4941021;29;20523;-68
2022/01/13 00:33:59;;;;;;;47.15;14.85;;;;;;;11.46;46.71;103915.16;4941052;29;20034;-66
2022/01/13 00:36:26;;;;;;;38.88;13.70;;;;;;;11.45;47.30;103916.97;4940909;29;20027;-66
2022/01/13 00:38:52;;;;;;;42.22;13.95;;;;;;;11.47;47.19;103922.31;4940385;29;20034;-67
2022/01/13 00:41:19;;;;;;;42.72;13.93;;;;;;;11.47;47.05;103916.94;4924537;29;20042;-66
2022/01/13 00:43:46;;;;;;;46.60;14.48;;;;;;;11.45;47.50;103921.47;4957540;29;20027;-67
2022/01/13 00:46:19;;;;;;;40.42;14.25;;;;;;;11.38;47.28;103914.59;4957537;28;20032;-67
2022/01/13 00:48:45;;;;;;;39.78;13.18;;;;;;;11.39;47.43;103929.78;4957559;29;20495;-67
2022/01/13 00:51:10;;;;;;;38.55;12.45;;;;;;;11.38;47.67;103930.69;4957531;29;20039;-68
2022/01/13 00:53:35;;;;;;;36.10;12.15;;;;;;;11.40;47.34;103934.19;4957499;29;20019;-67
2022/01/13 00:56:01;;;;;;;44.47;13.35;;;;;;;11.41;47.81;103933.25;4957048;29;20122;-67
2022/01/13 00:58:32;;;;;;;49.22;16.42;;;;;;;11.44;47.29;103938.53;4957128;29;20031;-67
2022/01/13 01:00:58;;;;;;;37.13;13.52;;;;;;;11.44;46.88;103938.53;4940182;29;20098;-67
2022/01/13 01:03:24;;;;;;;39.90;12.50;;;;;;;11.43;47.20;103934.06;4957315;29;20481;-67
2022/01/13 01:05:49;;;;;;;30.13;11.57;;;;;;;11.42;48.17;103940.38;4939975;29;20020;-66
2022/01/13 01:08:15;;;;;;;33.58;13.50;;;;;;;11.40;47.49;103931.50;4939806;29;20023;-67
2022/01/13 01:10:41;;;;;;;33.35;13.07;;;;;;;11.39;47.24;103936.00;4956999;29;20106;-67
2022/01/13 01:13:15;;;;;;;36.88;13.48;;;;;;;11.38;47.63;103938.75;4957198;29;20528;-67
2022/01/13 01:15:47;;;;;;;33.15;12.45;;;;;;;11.38;47.49;103944.13;4957042;29;20035;-67
2022/01/13 01:18:26;;;;;;;32.72;12.07;;;;;;;11.38;47.80;103945.00;4956787;29;20035;-68
2022/01/13 01:23:32;;;;;;;38.63;14.10;;;;;;;11.41;47.36;103935.94;4940738;29;20031;-67
2022/01/13 01:26:04;;;;;;;42.00;13.23;;;;;;;11.40;47.40;103926.13;4939904;29;20065;-67
2022/01/13 01:28:44;;;;;;;37.50;12.68;;;;;;;11.39;47.17;103938.66;4956748;29;20027;-66
2022/01/13 01:31:11;;;;;;;42.47;14.13;;;;;;;11.38;47.57;103931.56;4939454;29;20027;-67
2022/01/13 01:33:40;;;;;;;41.03;13.40;;;;;;;11.38;47.64;103936.06;4939707;29;20026;-67
2022/01/13 01:36:11;;;;;;;37.05;11.73;;;;;;;11.37;47.68;103929.81;4955838;28;20027;-67
2022/01/13 01:38:36;;;;;;;33.47;12.23;;;;;;;11.40;47.73;103944.91;4939366;29;20039;-66
2022/01/13 01:41:02;;;;;;;46.08;13.35;;;;;;;11.40;47.68;103943.13;4956424;29;20027;-68
2022/01/13 01:43:27;;;;;;;31.40;11.77;;;;;;;11.40;47.31;103942.25;4956368;29;20400;-67
2022/01/13 01:45:54;;;;;;;36.33;13.13;;;;;;;11.38;47.49;103933.38;4956690;28;20495;-67
2022/01/13 01:48:20;;;;;;;34.10;13.02;;;;;;;11.36;47.59;103928.06;4956578;29;20465;-67
2022/01/13 01:50:54;;;;;;;37.05;13.52;;;;;;;11.36;47.22;103921.84;4956356;29;20023;-66
2022/01/13 01:53:21;;;;;;;34.67;12.02;;;;;;;11.34;47.51;103921.00;4956523;29;20392;-66
2022/01/13 01:55:46;;;;;;;34.60;12.93;;;;;;;11.31;48.25;103911.25;4955992;29;20051;-67
2022/01/13 01:58:11;;;;;;;36.63;14.15;;;;;;;11.30;47.50;103920.25;4956096;29;20059;-68
2022/01/13 02:00:37;;;;;;;36.78;12.43;;;;;;;11.30;47.48;103920.25;4956160;29;20055;-67
2022/01/13 02:03:03;;;;;;;39.17;12.88;;;;;;;11.31;47.57;103923.78;4956109;29;20023;-67
2022/01/13 02:05:29;;;;;;;37.63;13.75;;;;;;;11.30;47.97;103922.06;4938910;29;20050;-66
2022/01/13 02:07:54;;;;;;;44.53;15.65;;;;;;;11.28;47.56;103926.63;4956009;29;20023;-67
2022/01/13 02:10:20;;;;;;;39.45;14.13;;;;;;;11.27;47.75;103938.28;4955913;29;20027;-68
2022/01/13 02:12:50;;;;;;;31.08;13.48;;;;;;;11.27;47.53;103932.91;4939065;29;20035;-66
2022/01/13 02:15:28;;;;;;;40.05;14.13;;;;;;;11.27;47.06;103930.22;4939528;29;20040;-67
2022/01/13 02:17:54;;;;;;;33.85;12.57;;;;;;;11.27;47.40;103930.22;4940511;29;20027;-66
2022/01/13 02:20:20;;;;;;;43.67;13.48;;;;;;;11.27;47.56;103935.59;4955561;29;20511;-66
2022/01/13 02:22:45;;;;;;;42.92;12.82;;;;;;;11.25;47.50;103930.25;4938559;29;20038;-67
2022/01/13 02:25:15;;;;;;;37.78;13.93;;;;;;;11.27;46.88;103930.22;4938290;29;20031;-67
2022/01/13 02:27:41;;;;;;;46.08;14.77;;;;;;;11.26;47.66;103929.34;4938453;29;20108;-67
2022/01/13 02:30:07;;;;;;;38.47;13.40;;;;;;;11.29;47.21;103933.72;4938655;29;20027;-67
2022/01/13 02:32:33;;;;;;;45.92;15.32;;;;;;;11.30;47.32;103936.38;4938743;29;20035;-67
2022/01/13 02:34:58;;;;;;;38.72;13.88;;;;;;;11.32;47.72;103936.28;4955458;29;20029;-67
2022/01/13 02:37:24;;;;;;;33.58;12.60;;;;;;;11.32;47.21;103934.47;4938248;29;20106;-67
2022/01/13 02:39:49;;;;;;;39.88;13.63;;;;;;;11.31;47.39;103934.53;4955468;29;20086;-67
2022/01/13 02:42:14;;;;;;;31.88;14.02;;;;;;;11.28;47.39;103932.00;4955505;29;20029;-67
2022/01/13 02:44:49;;;;;;;37.72;13.80;;;;;;;11.23;47.45;103925.88;4938261;28;20098;-67
2022/01/13 02:47:35;;;;;;;38.00;14.77;;;;;;;11.16;47.57;103933.31;4955112;28;20023;-67
2022/01/13 02:50:02;;;;;;;38.05;13.32;;;;;;;11.09;47.32;103940.69;4955470;29;20039;-67
2022/01/13 02:52:27;;;;;;;38.55;12.50;;;;;;;11.04;47.38;103940.00;4955569;29;20023;-67
2022/01/13 02:54:53;;;;;;;34.05;12.90;;;;;;;10.99;47.30;103936.63;4938305;29;20031;-67
2022/01/13 02:57:18;;;;;;;39.30;14.70;;;;;;;10.97;47.67;103937.59;4954739;29;20519;-67
2022/01/13 02:59:44;;;;;;;42.70;13.65;;;;;;;10.96;47.58;103936.72;4955321;29;20035;-67
2022/01/13 03:02:09;;;;;;;45.67;14.95;;;;;;;10.95;47.34;103934.97;4955151;29;20097;-67
2022/01/13 03:04:34;;;;;;;35.85;13.00;;;;;;;10.96;47.76;103936.72;4955089;29;20469;-66
2022/01/13 03:07:00;;;;;;;34.50;12.95;;;;;;;10.98;47.48;103934.84;4954891;29;20035;-66
2022/01/13 03:09:25;;;;;;;35.38;13.38;;;;;;;11.00;47.42;103937.47;4955111;29;20027;-66
2022/01/13 03:11:51;;;;;;;45.75;16.42;;;;;;;10.98;46.97;103940.22;4937985;29;20512;-68
2022/01/13 03:14:16;;;;;;;35.70;12.52;;;;;;;10.99;47.51;103935.72;4937841;29;20477;-67
2022/01/13 03:16:43;;;;;;;36.10;12.57;;;;;;;10.95;47.20;103937.63;4954627;29;20102;-67
2022/01/13 03:19:10;;;;;;;35.70;12.65;;;;;;;10.92;47.20;103940.44;4937790;29;20023;-67
2022/01/13 03:21:35;;;;;;;35.33;13.85;;;;;;;10.91;47.60;103938.69;4937456;29;20031;-67
2022/01/13 03:24:04;;;;;;;33.83;12.95;;;;;;;10.89;47.57;103940.53;4954396;29;20035;-67
2022/01/13 03:26:30;;;;;;;37.22;12.65;;;;;;;10.89;47.51;103929.81;4954522;29;20035;-67
2022/01/13 03:29:14;;;;;;;29.92;12.73;;;;;;;10.91;47.82;103927.09;4954350;29;20094;-67
2022/01/13 03:31:40;;;;;;;32.85;11.38;;;;;;;10.92;48.02;103924.34;4954524;29;20031;-67
2022/01/13 03:34:06;;;;;;;31.40;12.48;;;;;;;10.94;47.90;103922.47;4954429;29;20046;-67
2022/01/13 03:36:32;;;;;;;39.33;13.00;;;;;;;10.97;47.37;103924.19;4937239;29;20066;-67
2022/01/13 03:38:57;;;;;;;41.70;14.35;;;;;;;10.98;47.94;103924.13;4954301;29;20031;-66
2022/01/13 03:41:23;;;;;;;37.65;13.80;;;;;;;10.98;47.08;103924.13;4954232;29;20084;-67
2022/01/13 03:43:54;;;;;;;38.50;12.32;;;;;;;10.98;47.62;103924.13;4954326;29;20038;-67
2022/01/13 03:46:20;;;;;;;36.67;12.90;;;;;;;10.97;48.13;103922.38;4921539;29;20122;-68
2022/01/13 03:48:45;;;;;;;38.67;13.98;;;;;;;10.94;47.87;103914.41;4954163;29;20366;-68
2022/01/13 03:51:10;;;;;;;36.40;12.05;;;;;;;10.97;47.50;103922.38;4937092;29;20369;-66
2022/01/13 03:54:14;;;;;;;39.85;15.60;;;;;;;10.99;47.40;103925.88;4936927;29;20066;-67
2022/01/13 03:56:42;;;;;;;;;;;;;;;10.98;47.48;103932.16;4876661;29;20065;-67
2022/01/13 03:59:08;;;;;;;34.50;12.10;;;;;;;10.99;47.60;103925.00;4941503;28;19918;-67
2022/01/13 04:02:00;;;;;;;39.65;12.85;;;;;;;11.00;47.48;103929.41;4958095;29;20035;-67
2022/01/13 04:04:30;;;;;;;40.90;14.55;;;;;;;10.99;47.75;103927.69;4958072;29;20387;-67
2022/01/13 04:07:08;;;;;;;37.50;13.30;;;;;;;10.93;47.27;103931.47;4957955;29;20027;-67
2022/01/13 04:09:34;;;;;;;41.00;14.30;;;;;;;10.90;47.48;103936.94;4957826;29;20031;-67
2022/01/13 04:12:05;;;;;;;44.30;13.35;;;;;;;10.87;47.90;103926.31;4957886;29;20185;-67
2022/01/13 04:14:39;;;;;;;43.95;14.63;;;;;;;10.79;47.60;103917.69;4957834;29;20031;-67
2022/01/13 04:17:04;;;;;;;40.08;13.75;;;;;;;10.74;47.57;103911.59;4958096;29;20039;-67
2022/01/13 04:19:30;;;;;;;38.33;14.20;;;;;;;10.67;47.62;103920.78;4940713;29;20178;-66
2022/01/13 04:21:55;;;;;;;38.92;13.48;;;;;;;10.62;47.41;103927.22;4940632;29;20035;-69
2022/01/13 04:24:21;;;;;;;42.03;14.50;;;;;;;10.58;47.08;103922.94;4940618;29;20082;-67
2022/01/13 04:26:46;;;;;;;41.58;14.38;;;;;;;10.58;47.42;103928.28;4957784;29;20062;-67
2022/01/13 04:31:39;;;;;;;42.97;14.55;;;;;;;10.52;47.99;103908.78;4957649;29;20046;-67
2022/01/13 04:34:04;;;;;;;50.60;16.08;;;;;;;10.52;47.77;103918.66;4957618;29;20031;-67
2022/01/13 04:36:29;;;;;;;40.20;14.45;;;;;;;10.52;47.80;103913.28;4940327;29;20031;-67
2022/01/13 04:38:55;;;;;;;37.30;14.73;;;;;;;10.54;47.80;103908.75;4957418;29;20085;-66
2022/01/13 04:41:38;;;;;;;43.75;14.70;;;;;;;10.53;46.73;103912.34;4940213;29;20405;-67
2022/01/13 04:44:08;;;;;;;47.95;14.70;;;;;;;10.56;48.13;103904.19;4957452;29;20109;-66
2022/01/13 04:46:33;;;;;;;53.60;16.70;;;;;;;10.56;47.27;103908.69;4957678;28;20040;-66
2022/01/13 04:49:00;;;;;;;43.97;17.33;;;;;;;10.53;47.24;103910.53;4957309;29;20061;-66
2022/01/13 04:51:26;;;;;;;47.45;15.82;;;;;;;10.49;47.49;103913.41;4939969;29;20034;-67
2022/01/13 04:53:51;;;;;;;46.00;14.70;;;;;;;10.46;47.83;103913.50;4957550;29;20393;-66
2022/01/13 04:56:27;;;;;;;46.95;15.23;;;;;;;10.48;47.89;103911.63;4939655;29;20051;-67
2022/01/13 04:58:53;;;;;;;40.80;14.82;;;;;;;10.50;47.33;103909.75;4956951;29;20031;-67
2022/01/13 05:01:18;;;;;;;47.80;15.85;;;;;;;10.52;47.81;103902.56;4957011;29;20027;-66
2022/01/13 05:03:44;;;;;;;55.80;17.08;;;;;;;10.53;47.98;103899.81;4956949;29;20114;-66
2022/01/13 05:06:09;;;;;;;46.03;17.08;;;;;;;10.54;47.50;103898.03;4956916;29;20070;-67
2022/01/13 05:08:35;;;;;;;53.00;16.85;;;;;;;10.56;47.77;103897.97;4957104;29;20058;-67
2022/01/13 05:11:00;;;;;;;46.42;16.17;;;;;;;10.54;47.30;103903.38;4955604;28;20039;-66
2022/01/13 05:13:25;;;;;;;53.58;17.42;;;;;;;10.51;47.79;103900.81;4957069;29;20038;-67
2022/01/13 05:15:53;;;;;;;44.83;15.73;;;;;;;10.47;47.62;103896.47;4939592;29;20101;-67
2022/01/13 05:18:28;;;;;;;44.10;15.10;;;;;;;10.48;47.59;103895.56;4956628;29;20039;-66
2022/01/13 05:21:02;;;;;;;48.08;16.15;;;;;;;10.49;47.96;103900.00;4956688;29;20051;-67
2022/01/13 05:23:27;;;;;;;44.00;15.55;;;;;;;10.48;47.63;103896.44;4956884;29;20034;-67
2022/01/13 05:25:53;;;;;;;47.38;17.10;;;;;;;10.47;48.22;103891.09;4956953;29;20392;-67
2022/01/13 05:28:18;;;;;;;48.65;16.13;;;;;;;10.43;47.97;103894.84;4939465;29;20027;-66
2022/01/13 05:30:44;;;;;;;46.75;15.20;;;;;;;10.41;47.83;103894.88;4956812;29;20094;-67
2022/01/13 05:33:09;;;;;;;45.33;15.93;;;;;;;10.40;47.74;103897.63;4956485;29;20110;-67
2022/01/13 05:35:36;;;;;;;44.25;16.73;;;;;;;10.42;47.67;103898.44;4956551;29;20432;-66
2022/01/13 05:38:03;;;;;;;48.35;16.70;;;;;;;10.45;47.96;103892.97;4956070;29;20031;-66
2022/01/13 05:40:28;;;;;;;52.10;17.25;;;;;;;10.46;47.65;103892.94;4939075;29;20392;-66
2022/01/13 05:42:54;;;;;;;49.08;17.05;;;;;;;10.46;47.48;103886.69;4956246;29;20031;-67
2022/01/13 05:45:21;;;;;;;50.30;15.50;;;;;;;10.43;48.20;103881.44;4956104;28;20043;-67
2022/01/13 05:47:48;;;;;;;50.78;16.30;;;;;;;10.40;47.76;103884.22;4956452;29;20031;-67
2022/01/13 05:50:15;;;;;;;48.95;17.65;;;;;;;10.36;47.97;103888.81;4956183;29;20027;-67
2022/01/13 05:52:40;;;;;;;51.30;17.13;;;;;;;10.30;47.62;103875.63;4939070;29;20058;-67
2022/01/13 05:55:07;;;;;;;59.80;18.52;;;;;;;10.30;47.81;103880.13;4956159;29;20070;-67
2022/01/13 05:57:33;;;;;;;45.95;15.10;;;;;;;10.28;47.96;103881.97;4938509;29;20043;-67
2022/01/13 05:59:58;;;;;;;44.22;15.30;;;;;;;10.23;48.36;103875.88;4956009;29;20046;-67
2022/01/13 06:02:23;;;;;;;54.95;15.85;;;;;;;10.20;47.99;103870.63;4956007;29;20034;-67
2022/01/13 06:04:49;;;;;;;58.50;17.30;;;;;;;10.18;48.33;103867.13;4939108;29;20126;-67
2022/01/13 06:07:15;;;;;;;54.13;16.80;;;;;;;10.18;47.27;103869.81;4938861;29;20106;-67
2022/01/13 06:09:40;;;;;;;42.05;14.32;;;;;;;10.18;47.96;103868.03;4956425;29;20054;-66
2022/01/13 06:12:06;;;;;;;44.17;15.75;;;;;;;10.22;48.01;103876.81;4956171;29;20444;-66
2022/01/13 06:14:32;;;;;;;48.42;16.67;;;;;;;10.22;48.56;103882.16;4955923;29;20403;-67
2022/01/13 06:16:57;;;;;;;51.42;16.20;;;;;;;10.22;47.56;103874.13;4938662;29;20035;-67
2022/01/13 06:19:22;;;;;;;41.72;14.77;;;;;;;10.26;47.92;103883.81;4955771;29;20114;-67
2022/01/13 06:21:48;;;;;;;50.92;15.57;;;;;;;10.28;47.78;103873.91;4938315;29;20035;-67
2022/01/13 06:24:13;;;;;;;55.92;17.10;;;;;;;10.29;47.73;103881.91;4955795;29;20027;-66
2022/01/13 06:26:38;;;;;;;50.20;15.18;;;;;;;10.29;48.25;103883.72;4938551;29;20040;-68
2022/01/13 06:29:04;;;;;;;55.50;17.58;;;;;;;10.24;47.60;103885.69;4955644;29;20059;-67
2022/01/13 06:31:30;;;;;;;48.35;16.33;;;;;;;10.20;47.86;103878.66;4955545;29;20023;-66
2022/01/13 06:33:55;;;;;;;56.03;17.50;;;;;;;10.15;48.28;103876.16;4938459;29;20034;-66
2022/01/13 06:36:20;;;;;;;57.58;16.25;;;;;;;10.15;47.97;103880.63;4955560;29;20035;-67
2022/01/13 06:38:48;;;;;;;57.92;16.40;;;;;;;10.13;48.05;103871.78;4938470;29;20059;-67
2022/01/13 06:41:17;;;;;;;54.50;16.85;;;;;;;10.14;48.02;103873.50;4955477;29;20034;-66
2022/01/13 06:43:42;;;;;;;61.97;16.20;;;;;;;10.14;48.05;103879.75;4955320;29;20038;-66
2022/01/13 06:46:08;;;;;;;51.72;15.07;;;;;;;10.14;48.29;103874.38;4955207;28;20046;-66
2022/01/13 06:48:33;;;;;;;52.92;17.25;;;;;;;10.12;47.74;103869.97;4955343;29;20035;-67
2022/01/13 06:50:58;;;;;;;50.35;14.55;;;;;;;10.08;47.70;103868.34;4921735;29;20027;-68
2022/01/13 06:53:24;;;;;;;53.97;15.75;;;;;;;10.06;48.01;103870.19;4937934;29;20114;-67
2022/01/13 06:55:51;;;;;;;55.78;17.58;;;;;;;10.06;48.82;103881.78;4938328;29;20031;-67
2022/01/13 06:58:16;;;;;;;57.42;16.00;;;;;;;10.03;47.66;103881.00;4946995;29;20415;-67
2022/01/13 07:00:42;;;;;;;48.83;16.05;;;;;;;9.98;47.87;103881.16;4953905;29;20031;-66
2022/01/13 07:03:08;;;;;;;55.10;16.45;;;;;;;9.93;47.92;103873.28;4954940;28;20034;-66
2022/01/13 07:05:33;;;;;;;49.00;15.35;;;;;;;9.90;48.00;103880.53;4955151;29;20046;-66
2022/01/13 07:07:59;;;;;;;63.40;16.80;;;;;;;9.87;48.09;103880.63;4953667;29;20031;-66
2022/01/13 07:10:24;;;;;;;54.22;16.25;;;;;;;9.81;47.72;103876.34;4955035;28;20027;-67
2022/01/13 07:12:50;;;;;;;52.00;16.90;;;;;;;9.78;48.31;103881.81;4953945;29;20039;-66
2022/01/13 07:15:16;;;;;;;57.10;15.50;;;;;;;9.74;48.36;103888.16;4953384;29;20436;-66
2022/01/13 07:17:42;;;;;;;42.17;13.07;;;;;;;9.66;48.33;103895.56;4953423;29;20034;-66
2022/01/13 07:20:08;;;;;;;51.95;14.57;;;;;;;9.65;47.95;103901.84;4953531;29;20039;-67
2022/01/13 07:22:33;;;;;;;46.92;14.70;;;;;;;9.64;48.40;103901.88;4953472;29;20024;-66
2022/01/13 07:24:58;;;;;;;48.63;14.13;;;;;;;9.60;47.59;103901.13;4955200;28;20027;-67
2022/01/13 07:27:24;;;;;;;45.22;14.13;;;;;;;9.64;48.69;103905.44;4954784;28;20028;-67
2022/01/13 07:29:49;;;;;;;55.83;15.63;;;;;;;9.66;48.77;103902.75;4954528;28;20034;-67
2022/01/13 07:32:15;;;;;;;44.05;13.48;;;;;;;9.72;48.43;103910.56;4954680;28;20030;-66
2022/01/13 07:34:41;;;;;;;46.78;16.08;;;;;;;9.75;48.02;103919.38;4952614;29;20030;-66
2022/01/13 07:37:07;;;;;;;45.05;13.10;;;;;;;9.76;48.05;103915.78;4954512;28;20536;-66
2022/01/13 07:39:32;;;;;;;52.67;14.43;;;;;;;9.78;48.78;103919.28;4954796;28;20158;-67
2022/01/13 07:41:58;;;;;;;47.17;16.40;;;;;;;9.82;48.14;103914.72;4954511;28;20110;-67
2022/01/13 07:44:23;;;;;;;38.45;12.70;;;;;;;9.82;47.69;103909.34;4953221;29;20477;-66
2022/01/13 07:46:49;;;;;;;45.35;14.85;;;;;;;9.84;48.43;103903.03;4954730;28;20042;-66
2022/01/13 07:49:14;;;;;;;48.03;13.75;;;;;;;9.88;48.50;103909.16;4954423;28;20114;-66
2022/01/13 07:51:40;;;;;;;48.47;14.50;;;;;;;9.89;48.33;103910.91;4954352;28;20035;-66
2022/01/13 07:54:05;;;;;;;52.17;15.73;;;;;;;9.91;48.37;103899.22;4954380;28;20035;-66
2022/01/13 07:56:30;;;;;;;52.42;14.68;;;;;;;9.94;47.94;103907.16;4953049;29;20046;-67
2022/01/13 07:58:56;;;;;;;55.03;16.00;;;;;;;9.93;47.87;103901.84;4953022;29;20043;-66
2022/01/13 08:01:22;;;;;;;58.45;15.95;;;;;;;9.91;48.39;103904.56;4954320;28;20031;-67
2022/01/13 08:03:47;;;;;;;51.30;15.50;;;;;;;9.89;48.45;103898.41;4953022;29;20104;-67
2022/01/13 08:06:13;;;;;;;48.63;14.75;;;;;;;9.85;47.71;103901.22;4954173;28;20035;-67
2022/01/13 08:08:39;;;;;;;47.25;13.55;;;;;;;9.82;47.64;103899.53;4954528;28;20035;-66
2022/01/13 08:11:06;;;;;;;48.53;13.48;;;;;;;9.79;48.18;103904.97;4954569;28;20074;-66
2022/01/13 08:13:32;;;;;;;41.90;13.00;;;;;;;9.76;48.01;103899.72;4954291;28;20420;-66
2022/01/13 08:15:59;;;;;;;45.95;13.13;;;;;;;9.72;48.50;103908.75;4953174;29;20027;-67
2022/01/13 08:21:08;;;;;;;38.97;11.30;;;;;;;9.68;47.71;103917.81;4954263;29;20078;-66
2022/01/13 08:23:33;;;;;;;37.85;12.65;;;;;;;9.66;48.28;103918.78;4954061;28;20027;-67
2022/01/13 08:25:59;;;;;;;37.00;12.90;;;;;;;9.63;48.56;103911.72;4954398;28;20449;-67
2022/01/13 08:28:27;;;;;;;51.75;14.55;;;;;;;9.63;47.85;103910.88;4954263;28;20523;-66
2022/01/13 08:30:53;;;;;;;37.45;12.73;;;;;;;9.67;47.88;103920.53;4954082;28;20023;-67
2022/01/13 08:33:22;;;;;;;35.75;11.57;;;;;;;9.70;48.24;103920.44;4954095;28;20560;-66
2022/01/13 08:35:48;;;;;;;38.20;12.98;;;;;;;9.72;48.58;103938.19;4954117;28;20031;-66
2022/01/13 08:38:18;;;;;;;51.42;14.02;;;;;;;9.75;48.60;103934.53;4953872;28;20544;-66
2022/01/13 08:40:48;;;;;;;52.40;13.48;;;;;;;9.80;48.36;103937.94;4953934;28;20031;-66
2022/01/13 08:43:15;;;;;;;36.83;11.77;;;;;;;9.78;48.26;103943.38;4953834;28;20082;-66
2022/01/13 08:45:40;;;;;;;37.20;12.18;;;;;;;9.78;47.90;103945.16;4938278;29;20038;-66
2022/01/13 08:48:06;;;;;;;38.08;12.23;;;;;;;9.78;47.13;103940.69;4957366;28;20027;-68
2022/01/13 08:50:32;;;;;;;40.67;11.80;;;;;;;9.80;47.91;103941.50;4957595;28;20110;-66
2022/01/13 08:52:58;;;;;;;43.80;12.20;;;;;;;9.83;48.39;103949.44;4956225;29;20392;-66
2022/01/13 08:55:23;;;;;;;31.67;11.57;;;;;;;9.84;48.05;103945.84;4957388;28;20532;-67
2022/01/13 08:57:49;;;;;;;36.15;12.77;;;;;;;9.85;47.36;103952.94;4957150;28;20047;-67
2022/01/13 09:00:14;;;;;;;41.63;12.35;;;;;;;9.86;47.80;103954.72;4940013;29;20121;-67
2022/01/13 09:02:43;;;;;;;38.80;11.45;;;;;;;9.87;48.14;103961.84;4957137;29;20491;-67
2022/01/13 09:05:10;;;;;;;37.58;11.73;;;;;;;9.87;48.32;103956.47;4923904;29;20066;-67
2022/01/13 09:07:36;;;;;;;32.67;10.85;;;;;;;9.90;47.69;103953.72;4957262;29;20030;-67
2022/01/13 09:10:01;;;;;;;32.40;10.90;;;;;;;9.92;47.01;103959.88;4957019;29;20031;-67
2022/01/13 09:12:26;;;;;;;36.17;10.75;;;;;;;9.99;47.72;103960.56;4957019;29;20038;-67
2022/01/13 09:14:58;;;;;;;31.90;12.75;;;;;;;10.03;48.15;103956.84;4957059;29;20039;-66
2022/01/13 09:17:24;;;;;;;28.45;9.43;;;;;;;10.09;48.08;103966.50;4940655;29;20027;-66
2022/01/13 09:19:51;;;;;;;34.33;10.77;;;;;;;10.14;47.86;103969.94;4956899;29;20119;-67
2022/01/13 09:22:17;;;;;;;29.35;9.43;;;;;;;10.19;47.85;103970.69;4939703;29;20027;-66
2022/01/13 09:24:42;;;;;;;33.33;11.32;;;;;;;10.24;47.69;103966.06;4956770;29;20032;-67
2022/01/13 09:27:07;;;;;;;29.17;10.80;;;;;;;10.32;47.85;103969.34;4939532;29;20090;-67
2022/01/13 09:29:33;;;;;;;28.02;9.88;;;;;;;10.35;47.35;103959.41;4956658;29;20049;-67
2022/01/13 09:31:59;;;;;;;27.65;9.82;;;;;;;10.39;47.60;103960.16;4956573;29;20035;-67
2022/01/13 09:34:24;;;;;;;27.35;10.50;;;;;;;10.47;47.58;103958.09;4956532;29;20042;-67
2022/01/13 09:36:50;;;;;;;32.92;10.77;;;;;;;10.59;47.27;103952.34;4956303;29;20027;-67
2022/01/13 09:39:15;;;;;;;38.85;11.40;;;;;;;10.69;47.13;103953.75;4956487;29;20041;-67
2022/01/13 09:41:43;;;;;;;32.67;11.50;;;;;;;10.83;47.37;103947.94;4956354;29;20039;-67
2022/01/13 09:44:09;;;;;;;34.55;10.23;;;;;;;10.88;47.24;103949.53;4939057;29;20035;-67
2022/01/13 09:46:35;;;;;;;28.85;11.65;;;;;;;10.92;47.01;103964.56;4956628;28;20027;-67
2022/01/13 09:49:05;;;;;;;33.60;12.02;;;;;;;10.90;47.13;103963.75;4956282;29;20102;-67
2022/01/13 09:51:32;;;;;;;32.35;11.00;;;;;;;10.88;47.54;103962.94;4939693;29;20027;-67
2022/01/13 09:53:58;;;;;;;26.17;10.60;;;;;;;10.94;46.95;103965.38;4956219;29;20035;-68
2022/01/13 09:56:23;;;;;;;28.45;11.10;;;;;;;10.97;46.98;103969.78;4938631;28;20035;-66
2022/01/13 09:58:49;;;;;;;32.08;11.30;;;;;;;10.98;46.51;103967.03;4955452;29;20528;-66
2022/01/13 10:01:15;;;;;;;31.95;10.55;;;;;;;11.04;47.13;103958.78;4956057;29;20094;-67
2022/01/13 10:03:41;;;;;;;27.30;9.80;;;;;;;11.08;46.70;103962.22;4955957;29;20033;-68
2022/01/13 10:06:10;;;;;;;31.73;11.70;;;;;;;11.14;47.11;103958.44;4938840;29;20051;-67
2022/01/13 10:08:56;;;;;;;32.38;10.75;;;;;;;11.19;46.90;103953.78;4955956;29;20428;-67
2022/01/13 10:11:37;;;;;;;28.13;11.65;;;;;;;11.19;46.81;103953.78;4955715;29;20031;-67
2022/01/13 10:14:16;;;;;;;30.70;10.82;;;;;;;11.12;46.66;103958.50;4955737;29;20035;-68
2022/01/13 10:16:49;;;;;;;32.67;10.93;;;;;;;11.10;46.82;103961.25;4956011;29;20039;-67
2022/01/13 10:19:33;;;;;;;25.17;9.43;;;;;;;11.13;46.75;103948.63;4938634;29;20023;-67
2022/01/13 10:22:05;;;;;;;29.80;10.75;;;;;;;11.10;46.80;103949.63;4955731;29;20034;-67
2022/01/13 10:24:33;;;;;;;25.90;9.75;;;;;;;11.10;46.35;103955.00;4955704;29;20030;-67
2022/01/13 10:27:08;;;;;;;31.92;10.88;;;;;;;11.20;46.65;103947.47;4938483;29;20038;-67
2022/01/13 10:29:52;;;;;;;31.08;11.43;;;;;;;11.26;46.69;103949.94;4955335;29;20433;-67
2022/01/13 10:32:18;;;;;;;26.52;10.90;;;;;;;11.39;46.39;103945.88;4955608;29;20027;-68
2022/01/13 10:34:46;;;;;;;26.35;10.68;;;;;;;11.49;46.56;103947.25;4955276;29;20499;-67
2022/01/13 10:37:14;;;;;;;28.13;11.52;;;;;;;11.61;46.37;103953.03;4955209;29;20023;-68
2022/01/13 10:40:01;;;;;;;26.02;11.88;;;;;;;11.67;46.43;103949.22;4938186;29;20029;-68
2022/01/13 10:44:59;;;;;;;24.67;10.00;;;;;;;11.81;46.60;103951.44;4955497;29;20096;-68
2022/01/13 10:47:27;;;;;;;25.85;10.20;;;;;;;11.94;46.77;103945.50;4955001;28;20019;-68
2022/01/13 10:49:52;;;;;;;30.40;10.98;;;;;;;11.98;45.73;103948.94;4955108;29;20094;-69
2022/01/13 10:52:26;;;;;;;25.90;10.75;;;;;;;11.99;45.54;103948.00;4955137;29;20604;-69
2022/01/13 10:55:12;;;;;;;23.77;10.75;;;;;;;12.03;46.07;103944.28;4955253;29;20027;-68
2022/01/13 10:57:41;;;;;;;36.25;13.02;;;;;;;12.19;46.11;103946.25;4954762;29;20044;-68
2022/01/13 11:00:22;;;;;;;26.50;10.43;;;;;;;12.80;44.50;103946.34;4954972;29;20107;-69
2022/01/13 11:02:58;;;;;;;25.83;10.82;;;;;;;13.37;44.52;103935.66;4955169;29;20038;-69
2022/01/13 11:05:24;;;;;;;37.35;14.77;;;;;;;13.79;43.51;103922.00;4954858;29;20034;-69
2022/01/13 11:07:49;;;;;;;29.55;11.73;;;;;;;14.22;43.80;103912.69;4954834;28;20027;-69
2022/01/13 11:10:15;;;;;;;32.30;13.05;;;;;;;14.63;43.15;103909.72;4954803;29;20102;-69
2022/01/13 11:12:44;;;;;;;33.42;13.70;;;;;;;14.99;43.80;103913.19;4954996;29;20046;-69
2022/01/13 11:15:17;;;;;;;31.85;12.50;;;;;;;15.32;42.73;103914.06;4955086;29;20027;-69
2022/01/13 11:17:44;;;;;;;37.03;13.43;;;;;;;15.64;43.89;103913.16;4955148;29;20114;-69
2022/01/13 11:20:12;;;;;;;36.03;13.30;;;;;;;15.91;43.83;103899.91;4954851;29;20110;-69
2022/01/13 11:22:39;;;;;;;31.63;12.85;;;;;;;16.13;41.93;103896.81;4954979;29;20023;-69
2022/01/13 11:25:07;;;;;;;34.65;15.07;;;;;;;16.38;41.89;103889.00;4938111;29;20059;-70